DIRECCIÓN GENERAL DE AERONÁUTICA CIVIL
DIRECCIÓN METEOROLÓGICA DE CHILE
INFORMACIÓN METAR Y TAF

FIR SANTIAGO

Estación: SCSE
METAR SCSE 250700Z 33002KT 9999 OVC010 13/10 Q1014=

TAF SCSE 250400Z 2506/2606 25001KT 9999 OVC010 TX18/2519Z TN11/2510Z TEMPO 2508/2512 5000 -DZ BR OVC008 BECMG 2514/2516 28010KT SCT015 BECMG 2517/2519 CAVOK BECMG 2601/2603 VRB02KT=

Estación: SCER
METAR SCER 161100Z 00000KT 7000 OVC014 12/10 Q1015=

TAF SCER NIL=

Estación: SCRD
METAR SCRD 242200Z 23003KT 1500 BR OVC002 11/10 Q1016=

TAF SCRD 241034Z 2412/2424 VRB02KT 9999 OVC008 TX15/2418Z TN10/2412Z TEMPO 2412/2414 3000 BR OVC005 BECMG 2415/2417 33010KT BKN012 BECMG 2417/2419 SCT015=

Estación: SCVM
METAR SCVM 250700Z 00000KT 3000 BR OVC008 11/10 Q1015=

TAF SCVM 250400Z 2506/2606 VRB02KT 3500 BR OVC010 TX15/2519Z TN12/ 2510Z TEMPO 2508/2512 2000 -DZ BR OVC008 BECMG 2512/2514 29005KT 7000 BKN015 BECMG 2514/2516 SCT015 BECMG 2521/2523 BKN010 BECMG 2602/ 2604 VRB02KT=

Estación: SCTB
METAR SCTB 242200Z 26002KT 6000 SKC 20/10 Q1015=

TAF SCTB 241010Z 2412/2424 VRB02KT CAVOK TX24/2418Z TN07/2412Z BECMG 2416/2418 19008KT=

Estación: SCEL
METAR SCEL 250700Z VRB01KT 5000 HZ SKC 08/05 Q1014 NOSIG=

TAF SCEL 250400Z 2506/2606 15004KT 7000 NSC TX21/2519Z TN06/2510Z BECMG 2506/2508 3000 BR BKN008 TEMPO 2508/2512 0800 FG OVC003 BECMG 2515/2517 17007KT 5000 HZ NSC BECMG 2517/2519 19010KT CAVOK BECMG 2601/2603 16005KT=

Estación: SCSN
METAR SCSN 250000Z 00000KT 0800 -DZ BR OVC006 12/11 Q1017=

TAF SCSN 241033Z 2412/2424 VRB02KT 9999 OVC015 TX16/2418Z TN08/2412Z TEMPO 2412/2414 3000 BR OVC010 BECMG 2415/2417 28008KT BKN017 BECMG 2417/2419 29010KT SCT020=

Estación: SCRG
METAR SCRG 242000Z 19012KT 6000 NSC 21/11 Q1013=

TAF SCRG 241035Z 2412/2424 VRB02KT 3000 BR SCT008 TX22/2418Z TN07/ 2412Z TEMPO 2412/2414 0500 BCFG BKN005 BECMG 2414/2416 19008KT 9999 FEW010 BECMG 2416/2418 CAVOK=

Estación: SCIC
METAR SCIC 250700Z AUTO 00000KT 0100 R/////// FG VV001 05/05 Q1013=

TAF SCIC 241035Z 2412/2424 VRB02KT 2000 BR OVC003 TX22/2418Z TN10/ 2412Z TEMPO 2412/2415 0200 FG VV001 BECMG 2415/2417 18008KT 5000 HZ BKN010 BECMG 2417/2719 20010KT 9999 SCT015=

Estación: SCCH
METAR SCCH 242200Z 20002KT CAVOK 21/11 Q1013=

TAF SCCH 241036Z 2412/2424 17004KT 5000 BR BKN008 TX21/2418Z TN07/ 2412Z TEMPO 2412/2414 VRB02KT 0800 BCFG OVC003 BECMG 2416/2418 19008KT 9999 SCT025=

Estación: SCIE
METAR SCIE 250700Z 34002KT 0800 FG VV001 10/10 Q1015=

TAF SCIE 250400Z 2506/2606 03006KT 1200 BR OVC001 TX16/2518Z TN09/ 2510Z BECMG 2508/2510 3000 BR OVC008 TEMPO 2512/2513 VRB02KT 0500 FG OVC002 BECMG 2513/2515 5000 BR BKN010 TEMPO 2516/2520 26005KT CAVOK BECMG 2602/2604 VRB02KT BKN015=

Estación: SCGE
METAR SCGE 242100Z 18008KT CAVOK 24/09 Q1014=

TAF SCGE 241037Z 2412/2424 VRB02KT 9999 SCT008 TX20/2418Z TN08/2412Z TEMPO 2412/2414 0600 BCFG OVC003 BECMG 2416/2418 19012KT 9999 SCT025=


Volver